Fort Salonga, New York
Current Conditions -  °F | °C
As of 5:53 PM on Wednesday 17 Dec 2014 (Local Time) from KFRG Reporting Station
Overcast Overcast  
Wind Chill: 44°   Ceiling: 6000
Heat Index: 49°   Visibility: 10mi
Dew Point: 35°   Wind: 13mph
Humidity: 59%   Direction: 310°NW
Pressure: 29.85"   Gusts: 23mph
Location:  40.9096°N, 73.3231°W
Report Text: KFRG 172253Z 31011G20KT 10SM SCT034 OVC060 09/02 A2985 RMK AO2 PK WND 29026/2216 SLP109 T00940017
Loading
Personal Weather Stations






























Interactive Weather Map New forecast layout! Learn more

10-Day Weather Forecast

Advertisements
Track Severe Weather on mobile